Time;durP1;ratioP1;P1;durP2;ratioP2;P2;SDS_P1;SDS_P2;PMS_P1;PMS_P2;Temp;Humidity;BMP_temperature;BMP_pressure;BME280_temperature;BME280_humidity;BME280_pressure;Samples;Min_cycle;Max_cycle;Signal;HPM_P1;HPM_P2
2023/08/31 00:00:41;;;;;;;5.65;2.80;;;18.00;99.50;;;;;;6271355;22;20003;-76
2023/08/31 00:03:27;;;;;;;3.63;2.70;;;18.00;99.50;;;;;;6271348;22;20015;-76
2023/08/31 00:06:13;;;;;;;4.57;2.70;;;18.00;99.50;;;;;;6268906;22;20065;-76
2023/08/31 00:08:59;;;;;;;7.68;2.83;;;18.10;99.50;;;;;;6271072;22;20018;-75
2023/08/31 00:11:45;;;;;;;3.80;2.67;;;18.10;99.50;;;;;;6272238;22;20449;-75
2023/08/31 00:14:32;;;;;;;4.10;3.13;;;18.10;99.50;;;;;;6268697;22;20395;-75
2023/08/31 00:17:18;;;;;;;4.07;2.58;;;18.20;99.50;;;;;;6271901;22;20352;-75
2023/08/31 00:20:07;;;;;;;4.72;3.25;;;18.10;99.40;;;;;;6273306;22;20391;-75
2023/08/31 00:22:52;;;;;;;4.15;2.70;;;18.20;99.40;;;;;;6271437;22;20078;-73
2023/08/31 00:25:38;;;;;;;3.90;2.83;;;18.20;99.40;;;;;;6271095;22;20382;-73
2023/08/31 00:28:25;;;;;;;4.05;2.35;;;18.20;99.40;;;;;;6269743;22;20015;-73
2023/08/31 00:31:11;;;;;;;3.30;2.40;;;18.20;99.30;;;;;;6271292;22;20087;-72
2023/08/31 00:33:57;;;;;;;3.53;2.63;;;18.20;99.30;;;;;;6267986;22;20016;-73
2023/08/31 00:36:43;;;;;;;3.75;2.60;;;18.20;99.20;;;;;;6269466;22;20528;-71
2023/08/31 00:39:31;;;;;;;3.15;2.30;;;18.20;99.20;;;;;;6270717;22;20026;-72
2023/08/31 00:42:17;;;;;;;3.58;2.63;;;18.20;99.30;;;;;;6268336;22;20046;-72
2023/08/31 00:45:04;;;;;;;4.25;2.53;;;18.20;99.30;;;;;;6271543;22;20387;-74
2023/08/31 00:47:50;;;;;;;3.85;2.63;;;18.20;99.30;;;;;;6271270;22;20016;-72
2023/08/31 00:50:36;;;;;;;6.05;2.55;;;18.20;99.30;;;;;;6272414;22;20004;-73
2023/08/31 00:53:23;;;;;;;6.03;2.75;;;18.20;99.30;;;;;;6248610;22;20015;-73
2023/08/31 00:56:09;;;;;;;3.97;2.67;;;18.20;99.20;;;;;;6271755;22;20019;-73
2023/08/31 00:58:55;;;;;;;3.42;2.70;;;18.20;99.20;;;;;;6267457;22;20007;-74
2023/08/31 01:01:55;;;;;;;3.75;2.55;;;18.20;99.20;;;;;;6272385;22;20016;-73
2023/08/31 01:04:48;;;;;;;4.20;2.70;;;18.20;99.20;;;;;;6270457;22;20008;-73
2023/08/31 01:07:44;;;;;;;4.53;2.53;;;18.20;99.20;;;;;;6269498;22;20073;-73
2023/08/31 01:10:36;;;;;;;5.18;3.05;;;18.20;99.20;;;;;;6270557;22;20314;-73
2023/08/31 01:13:25;;;;;;;6.68;2.60;;;18.20;99.20;;;;;;6269575;22;20011;-73
2023/08/31 01:16:13;;;;;;;3.22;2.45;;;18.10;99.20;;;;;;6270542;22;20039;-73
2023/08/31 01:19:00;;;;;;;4.07;2.30;;;18.10;99.20;;;;;;6270786;22;20016;-74
2023/08/31 01:21:50;;;;;;;3.58;2.33;;;18.10;99.20;;;;;;6269845;22;20417;-73
2023/08/31 01:24:36;;;;;;;4.65;2.40;;;18.10;99.20;;;;;;6269680;22;20106;-73
2023/08/31 01:27:23;;;;;;;5.55;2.80;;;18.10;99.20;;;;;;6269676;22;20528;-73
2023/08/31 01:30:09;;;;;;;3.00;2.47;;;18.10;99.20;;;;;;6270089;22;20011;-71
2023/08/31 01:32:55;;;;;;;3.70;2.42;;;18.00;99.30;;;;;;6267785;22;20021;-71
2023/08/31 01:35:48;;;;;;;3.58;2.35;;;18.00;99.50;;;;;;6271668;22;20505;-72
2023/08/31 01:38:37;;;;;;;5.68;2.67;;;18.00;99.30;;;;;;6269249;22;20020;-74
2023/08/31 01:41:26;;;;;;;3.80;2.47;;;17.90;99.30;;;;;;6270000;22;20011;-71
2023/08/31 01:44:16;;;;;;;6.22;2.85;;;17.90;99.30;;;;;;6270436;22;20007;-72
2023/08/31 01:47:08;;;;;;;2.42;2.05;;;17.90;99.40;;;;;;6270275;22;20011;-72
2023/08/31 01:49:54;;;;;;;4.65;2.65;;;17.80;99.40;;;;;;6270236;22;20342;-71
2023/08/31 01:52:40;;;;;;;3.55;2.63;;;17.80;99.50;;;;;;6270032;22;20336;-71
2023/08/31 01:55:26;;;;;;;5.72;2.75;;;17.80;99.70;;;;;;6270900;22;20026;-70
2023/08/31 01:58:12;;;;;;;5.47;2.72;;;17.80;99.80;;;;;;6269008;22;20019;-71
2023/08/31 02:00:58;;;;;;;5.32;2.33;;;17.80;99.90;;;;;;6271505;22;20011;-70
2023/08/31 02:03:43;;;;;;;3.95;2.42;;;17.70;99.90;;;;;;6271274;22;20015;-70
2023/08/31 02:06:29;;;;;;;2.92;2.13;;;17.70;99.90;;;;;;6270933;22;20043;-70
2023/08/31 02:09:16;;;;;;;3.10;2.33;;;17.70;99.90;;;;;;6268198;22;20012;-71
2023/08/31 02:12:02;;;;;;;3.65;2.20;;;17.70;99.90;;;;;;6270009;22;20004;-69
2023/08/31 02:14:48;;;;;;;3.00;2.05;;;17.70;99.90;;;;;;6272172;22;20016;-70
2023/08/31 02:17:34;;;;;;;3.80;2.42;;;17.70;99.90;;;;;;6270113;22;20073;-71
2023/08/31 02:20:20;;;;;;;4.22;2.17;;;17.60;99.90;;;;;;6274213;22;20004;-71
2023/08/31 02:23:06;;;;;;;3.17;2.10;;;17.60;99.90;;;;;;6272116;22;20016;-71
2023/08/31 02:25:52;;;;;;;2.25;1.67;;;17.60;99.90;;;;;;6274120;22;20232;-71
2023/08/31 02:28:38;;;;;;;3.10;1.90;;;17.60;99.90;;;;;;6272067;22;20046;-71
2023/08/31 02:31:24;;;;;;;3.00;1.88;;;17.50;99.90;;;;;;6273493;22;20083;-71
2023/08/31 02:34:10;;;;;;;3.35;1.80;;;17.50;99.90;;;;;;6273377;22;20024;-71
2023/08/31 02:36:56;;;;;;;4.10;1.67;;;17.40;99.90;;;;;;6269893;22;20020;-71
2023/08/31 02:39:42;;;;;;;2.60;1.60;;;17.30;99.90;;;;;;6270661;22;20007;-70
2023/08/31 02:42:28;;;;;;;3.00;1.70;;;17.30;99.90;;;;;;6269979;22;20444;-71
2023/08/31 02:45:15;;;;;;;3.25;2.22;;;17.20;99.90;;;;;;6272834;22;20063;-71
2023/08/31 02:48:03;;;;;;;3.20;1.80;;;17.20;99.90;;;;;;6274092;22;20052;-71
2023/08/31 02:50:49;;;;;;;3.15;1.80;;;17.20;99.90;;;;;;6273718;22;20018;-71
2023/08/31 02:53:35;;;;;;;2.08;1.65;;;17.20;99.90;;;;;;6269294;22;20046;-72
2023/08/31 02:56:21;;;;;;;3.13;2.03;;;17.20;99.90;;;;;;6272596;22;20089;-71
2023/08/31 02:59:07;;;;;;;2.53;1.90;;;17.10;99.90;;;;;;6271401;22;20047;-71
2023/08/31 03:01:53;;;;;;;2.97;1.98;;;17.10;99.90;;;;;;6271466;22;20055;-70
2023/08/31 03:04:39;;;;;;;3.92;1.92;;;17.10;99.90;;;;;;6272000;22;20018;-71
2023/08/31 03:07:25;;;;;;;3.28;1.85;;;17.10;99.90;;;;;;6270957;22;20012;-70
2023/08/31 03:10:11;;;;;;;2.85;1.75;;;17.00;99.90;;;;;;6270058;22;20011;-70
2023/08/31 03:12:57;;;;;;;4.05;1.80;;;17.00;99.90;;;;;;6272917;22;20701;-70
2023/08/31 03:15:43;;;;;;;3.13;2.20;;;17.00;99.90;;;;;;6272788;22;20416;-70
2023/08/31 03:18:29;;;;;;;3.83;2.05;;;17.00;99.90;;;;;;6271516;22;20123;-70
2023/08/31 03:21:15;;;;;;;2.67;2.03;;;17.00;99.90;;;;;;6271629;22;20012;-71
2023/08/31 03:24:02;;;;;;;3.33;1.92;;;16.90;99.90;;;;;;6270294;22;20095;-71
2023/08/31 03:26:48;;;;;;;2.60;1.95;;;16.90;99.90;;;;;;6273007;22;20031;-70
2023/08/31 03:29:34;;;;;;;2.92;2.10;;;16.90;99.90;;;;;;6269464;22;20571;-71
2023/08/31 03:32:20;;;;;;;3.60;2.17;;;16.90;99.90;;;;;;6272216;22;20012;-70
2023/08/31 03:35:07;;;;;;;3.25;1.90;;;16.90;99.90;;;;;;6273359;22;20051;-69
2023/08/31 03:37:53;;;;;;;2.45;1.70;;;16.90;99.90;;;;;;6273615;22;20062;-71
2023/08/31 03:40:39;;;;;;;2.38;1.50;;;16.90;99.90;;;;;;6271714;22;20012;-68
2023/08/31 03:43:25;;;;;;;3.13;1.90;;;16.90;99.90;;;;;;6271100;22;20011;-69
2023/08/31 03:46:11;;;;;;;2.92;1.85;;;16.90;99.90;;;;;;6271988;22;20441;-69
2023/08/31 03:48:57;;;;;;;3.05;2.10;;;16.90;99.90;;;;;;6270260;22;20019;-69
2023/08/31 03:51:43;;;;;;;2.40;1.60;;;16.90;99.90;;;;;;6272181;22;20054;-69
2023/08/31 03:54:29;;;;;;;2.90;1.80;;;16.90;99.90;;;;;;6272823;22;20070;-69
2023/08/31 03:57:15;;;;;;;3.22;1.98;;;16.90;99.90;;;;;;6271144;22;20269;-69
2023/08/31 04:00:03;;;;;;;2.90;2.33;;;16.90;99.90;;;;;;6269424;22;20018;-69
2023/08/31 04:02:49;;;;;;;3.33;2.15;;;16.90;99.90;;;;;;6271939;22;20015;-72
2023/08/31 04:05:35;;;;;;;3.47;2.40;;;16.90;99.90;;;;;;6271491;22;20341;-73
2023/08/31 04:08:21;;;;;;;4.22;2.28;;;16.90;99.90;;;;;;6272840;22;20004;-73
2023/08/31 04:11:08;;;;;;;3.22;2.25;;;16.90;99.90;;;;;;6269814;22;20095;-72
2023/08/31 04:13:54;;;;;;;4.25;2.40;;;17.00;99.90;;;;;;6270899;22;20510;-72
2023/08/31 04:16:40;;;;;;;3.38;2.38;;;17.00;99.90;;;;;;6268777;22;20039;-74
2023/08/31 04:19:26;;;;;;;5.20;2.67;;;16.90;99.90;;;;;;6271576;22;20023;-71
2023/08/31 04:22:12;;;;;;;3.10;2.22;;;16.90;99.90;;;;;;6269257;22;20043;-72
2023/08/31 04:24:58;;;;;;;4.55;3.10;;;16.90;99.90;;;;;;6271993;22;20016;-69
2023/08/31 04:27:45;;;;;;;4.00;2.50;;;16.90;99.90;;;;;;6271658;22;20008;-69
2023/08/31 04:30:31;;;;;;;3.95;2.42;;;16.90;99.90;;;;;;6271114;22;20022;-69
2023/08/31 04:33:18;;;;;;;3.60;2.50;;;16.90;99.90;;;;;;6270180;22;20065;-70
2023/08/31 04:36:04;;;;;;;6.35;3.42;;;16.90;99.90;;;;;;6271571;22;20028;-70
2023/08/31 04:38:51;;;;;;;4.10;2.67;;;16.90;99.90;;;;;;6270777;22;20363;-70
2023/08/31 04:41:36;;;;;;;4.30;3.22;;;16.90;99.90;;;;;;6272106;22;20149;-70
2023/08/31 04:44:22;;;;;;;4.50;3.00;;;16.90;99.90;;;;;;6269362;22;20012;-70
2023/08/31 04:47:08;;;;;;;4.95;2.88;;;16.90;99.90;;;;;;6268875;22;20008;-71
2023/08/31 04:49:55;;;;;;;4.70;3.20;;;16.90;99.90;;;;;;6271336;22;20463;-70
2023/08/31 04:52:41;;;;;;;5.55;3.28;;;16.90;99.90;;;;;;6271993;22;20011;-71
2023/08/31 04:55:27;;;;;;;5.47;3.60;;;16.90;99.90;;;;;;6269216;22;20018;-71
2023/08/31 04:58:13;;;;;;;4.80;3.40;;;16.80;99.90;;;;;;6268480;22;20030;-72
2023/08/31 05:00:59;;;;;;;5.95;4.07;;;16.90;99.90;;;;;;6271656;22;20438;-72
2023/08/31 05:03:45;;;;;;;5.43;3.70;;;16.80;99.90;;;;;;6271838;22;20014;-72
2023/08/31 05:06:31;;;;;;;4.53;3.05;;;16.80;99.90;;;;;;6271070;22;20022;-69
2023/08/31 05:09:18;;;;;;;4.43;3.17;;;16.80;99.90;;;;;;6271310;22;20039;-69
2023/08/31 05:12:05;;;;;;;4.97;3.47;;;16.90;99.90;;;;;;6269264;22;20114;-69
2023/08/31 05:14:51;;;;;;;6.55;4.10;;;16.90;99.90;;;;;;6272286;22;20015;-69
2023/08/31 05:17:37;;;;;;;6.05;3.47;;;16.90;99.90;;;;;;6270939;22;20019;-67
2023/08/31 05:20:23;;;;;;;4.82;3.40;;;16.90;99.90;;;;;;6269559;22;20020;-68
2023/08/31 05:23:09;;;;;;;5.70;3.47;;;17.00;99.90;;;;;;6269381;22;20012;-69
2023/08/31 05:25:56;;;;;;;7.13;4.25;;;17.00;99.90;;;;;;6268810;22;20008;-68
2023/08/31 05:28:43;;;;;;;7.28;4.03;;;17.10;99.90;;;;;;6272205;22;20011;-67
2023/08/31 05:31:29;;;;;;;6.35;4.30;;;17.10;99.90;;;;;;6269673;22;20058;-68
2023/08/31 05:34:21;;;;;;;5.90;3.70;;;17.20;99.90;;;;;;6270040;22;20453;-68
2023/08/31 05:37:07;;;;;;;7.75;4.68;;;17.20;99.90;;;;;;6268997;22;20073;-67
2023/08/31 05:39:53;;;;;;;7.22;4.30;;;17.20;99.90;;;;;;6269936;22;20035;-72
2023/08/31 05:42:39;;;;;;;6.50;3.80;;;17.20;99.90;;;;;;6270820;22;20065;-69
2023/08/31 05:45:25;;;;;;;6.50;3.97;;;17.20;99.90;;;;;;6271823;22;20079;-69
2023/08/31 05:48:11;;;;;;;6.00;3.78;;;17.20;99.90;;;;;;6267547;22;20022;-70
2023/08/31 05:50:57;;;;;;;7.45;4.55;;;17.20;99.90;;;;;;6248234;22;20008;-69
2023/08/31 05:53:43;;;;;;;6.88;4.53;;;17.20;99.90;;;;;;6273414;22;20015;-71
2023/08/31 05:56:29;;;;;;;7.45;3.80;;;17.20;99.90;;;;;;6270549;22;20008;-70
2023/08/31 05:59:15;;;;;;;5.25;3.88;;;17.20;99.90;;;;;;6272900;22;20085;-70
2023/08/31 06:02:01;;;;;;;8.25;4.25;;;17.20;99.90;;;;;;6273829;22;20011;-69
2023/08/31 06:04:47;;;;;;;6.07;3.97;;;17.30;99.90;;;;;;6272295;22;20015;-70
2023/08/31 06:07:33;;;;;;;6.35;4.15;;;17.30;99.90;;;;;;6269621;22;20020;-70
2023/08/31 06:10:19;;;;;;;7.47;4.18;;;17.30;99.90;;;;;;6270324;22;20043;-69
2023/08/31 06:13:05;;;;;;;6.63;3.97;;;17.30;99.90;;;;;;6272194;22;20008;-70
2023/08/31 06:15:51;;;;;;;6.35;3.95;;;17.40;99.90;;;;;;6269395;22;20012;-70
2023/08/31 06:18:37;;;;;;;5.20;3.70;;;17.40;99.90;;;;;;6272697;22;20019;-70
2023/08/31 06:21:23;;;;;;;5.43;4.25;;;17.40;99.90;;;;;;6272568;22;20466;-71
2023/08/31 06:24:12;;;;;;;6.35;3.97;;;17.40;99.90;;;;;;6271010;22;20020;-72
2023/08/31 06:26:58;;;;;;;6.22;3.97;;;17.40;99.90;;;;;;6272201;22;20433;-72
2023/08/31 06:29:44;;;;;;;6.43;4.22;;;17.50;99.90;;;;;;6270880;22;20441;-72
2023/08/31 06:32:30;;;;;;;4.63;3.40;;;17.50;99.90;;;;;;6273194;22;20037;-71
2023/08/31 06:35:17;;;;;;;5.85;3.40;;;17.50;99.90;;;;;;6269946;22;20020;-72
2023/08/31 06:38:03;;;;;;;5.43;3.50;;;17.60;99.90;;;;;;6271610;22;20053;-71
2023/08/31 06:40:49;;;;;;;5.72;3.67;;;17.50;99.90;;;;;;6271076;22;20011;-71
2023/08/31 06:43:35;;;;;;;8.73;3.55;;;17.60;99.90;;;;;;6274636;22;20003;-71
2023/08/31 06:46:21;;;;;;;5.80;3.90;;;17.60;99.90;;;;;;6277861;22;20004;-70
2023/08/31 06:49:07;;;;;;;6.03;4.35;;;17.60;99.90;;;;;;6273540;22;20004;-72
2023/08/31 06:51:53;;;;;;;6.20;3.50;;;17.70;99.90;;;;;;6270284;22;20019;-66
2023/08/31 06:54:39;;;;;;;5.65;3.97;;;17.70;99.90;;;;;;6272429;22;20046;-70
2023/08/31 06:57:27;;;;;;;4.72;3.53;;;17.80;99.90;;;;;;6272588;22;20019;-74
2023/08/31 07:00:13;;;;;;;5.57;3.75;;;17.80;99.90;;;;;;6272124;22;20020;-74
2023/08/31 07:02:59;;;;;;;6.50;3.95;;;17.80;99.90;;;;;;6272111;22;20365;-72
2023/08/31 07:05:45;;;;;;;5.60;3.30;;;17.90;99.90;;;;;;6271553;22;20011;-73
2023/08/31 07:08:31;;;;;;;6.38;3.97;;;17.90;99.90;;;;;;6271886;22;20012;-72
2023/08/31 07:11:18;;;;;;;8.50;3.72;;;17.90;99.90;;;;;;6268603;22;20011;-71
2023/08/31 07:14:04;;;;;;;6.10;3.70;;;17.90;99.90;;;;;;6270142;22;20069;-71
2023/08/31 07:16:50;;;;;;;4.93;3.38;;;18.00;99.90;;;;;;6272467;22;20464;-72
2023/08/31 07:19:37;;;;;;;5.13;3.25;;;18.00;99.90;;;;;;6272441;22;20360;-71
2023/08/31 07:22:23;;;;;;;6.22;3.42;;;17.90;99.90;;;;;;6271641;22;20012;-71
2023/08/31 07:25:09;;;;;;;6.53;4.18;;;17.90;99.90;;;;;;6273510;22;20027;-72
2023/08/31 07:27:55;;;;;;;8.18;4.10;;;17.90;99.90;;;;;;6273438;22;20097;-71
2023/08/31 07:30:41;;;;;;;5.63;3.63;;;17.90;99.90;;;;;;6272409;22;20101;-70
2023/08/31 07:33:27;;;;;;;6.57;3.58;;;17.90;99.90;;;;;;6271978;22;20077;-68
2023/08/31 07:36:15;;;;;;;5.68;3.65;;;18.00;99.90;;;;;;6269073;22;20027;-68
2023/08/31 07:39:01;;;;;;;5.30;2.95;;;18.00;99.90;;;;;;6269660;22;20090;-68
2023/08/31 07:41:47;;;;;;;5.20;3.13;;;18.00;99.90;;;;;;6269216;22;20073;-68
2023/08/31 07:44:32;;;;;;;6.13;3.10;;;18.10;99.90;;;;;;6269455;22;20012;-68
2023/08/31 07:47:18;;;;;;;5.20;2.72;;;18.10;99.90;;;;;;6269363;22;20018;-67
2023/08/31 07:50:06;;;;;;;8.77;3.60;;;18.10;99.90;;;;;;6268984;22;20008;-69
2023/08/31 07:52:52;;;;;;;4.25;2.78;;;18.20;99.90;;;;;;6270472;22;20098;-68
2023/08/31 07:55:39;;;;;;;4.80;2.95;;;18.20;99.90;;;;;;6269198;22;20441;-69
2023/08/31 07:58:28;;;;;;;5.07;2.97;;;18.20;99.90;;;;;;6273134;22;20020;-71
2023/08/31 08:01:14;;;;;;;6.95;3.00;;;18.30;99.90;;;;;;6270126;22;20015;-74
2023/08/31 08:04:00;;;;;;;4.10;2.80;;;18.30;99.90;;;;;;6267776;22;20012;-73
2023/08/31 08:06:46;;;;;;;7.20;2.30;;;18.40;99.70;;;;;;6272401;22;20004;-73
2023/08/31 08:09:32;;;;;;;4.85;2.33;;;18.40;99.50;;;;;;6271578;22;20099;-72
2023/08/31 08:12:18;;;;;;;5.53;2.42;;;18.50;99.20;;;;;;6271930;22;20075;-71
2023/08/31 08:15:04;;;;;;;12.50;3.85;;;18.50;99.00;;;;;;6271740;22;20016;-72
2023/08/31 08:17:50;;;;;;;3.83;2.38;;;18.50;98.80;;;;;;6269260;22;20515;-74
2023/08/31 08:20:36;;;;;;;4.05;2.10;;;18.50;98.80;;;;;;6272248;22;20019;-74
2023/08/31 08:23:23;;;;;;;6.43;2.47;;;18.50;98.70;;;;;;6268923;22;20460;-73
2023/08/31 08:26:09;;;;;;;3.28;2.30;;;18.50;98.70;;;;;;6246717;22;20007;-74
2023/08/31 08:28:55;;;;;;;3.58;2.60;;;18.50;98.70;;;;;;6268064;22;20043;-75
2023/08/31 08:31:42;;;;;;;5.38;2.58;;;18.60;98.80;;;;;;6270942;22;20043;-75
2023/08/31 08:34:28;;;;;;;5.70;2.38;;;18.60;98.50;;;;;;6271161;22;20255;-74
2023/08/31 08:37:14;;;;;;;7.20;2.83;;;18.60;98.40;;;;;;6271602;22;20449;-73
2023/08/31 08:40:01;;;;;;;4.15;2.10;;;18.60;98.10;;;;;;6271895;22;20457;-73
2023/08/31 08:42:47;;;;;;;3.25;1.80;;;18.60;97.90;;;;;;6271625;22;20007;-76
2023/08/31 08:45:42;;;;;;;4.47;2.47;;;18.60;97.70;;;;;;6271262;22;20020;-76
2023/08/31 08:48:28;;;;;;;3.65;1.70;;;18.70;97.60;;;;;;6270477;22;20008;-75
2023/08/31 08:51:14;;;;;;;2.50;1.70;;;18.80;97.50;;;;;;6270824;22;20012;-75
2023/08/31 08:54:01;;;;;;;4.22;1.90;;;18.90;97.40;;;;;;6269739;22;20499;-76
2023/08/31 08:56:47;;;;;;;4.65;2.05;;;19.00;97.30;;;;;;6269797;22;20047;-77
2023/08/31 08:59:33;;;;;;;6.30;1.63;;;19.10;97.20;;;;;;6269737;22;20043;-76
2023/08/31 09:02:19;;;;;;;3.85;1.60;;;19.10;96.80;;;;;;6247797;22;20012;-74
2023/08/31 09:05:05;;;;;;;3.63;1.55;;;19.20;96.60;;;;;;6268213;22;20008;-75
2023/08/31 09:08:09;;;;;;;2.80;1.52;;;19.20;96.40;;;;;;6265317;22;20012;-75
2023/08/31 09:10:59;;;;;;;3.90;2.53;;;19.20;96.30;;;;;;6248901;22;20023;-74
2023/08/31 09:13:45;;;;;;;2.50;1.50;;;19.20;96.20;;;;;;6270328;22;20012;-78
2023/08/31 09:16:32;;;;;;;2.05;1.30;;;19.30;96.00;;;;;;6270641;22;20012;-74
2023/08/31 09:19:20;;;;;;;5.18;1.63;;;19.30;95.60;;;;;;6268425;22;20016;-74
2023/08/31 09:22:06;;;;;;;1.90;1.35;;;19.20;95.40;;;;;;6248842;22;20004;-74
2023/08/31 09:24:51;;;;;;;2.63;1.20;;;19.20;95.30;;;;;;6246338;22;20094;-74
2023/08/31 09:27:38;;;;;;;1.67;1.17;;;19.20;95.20;;;;;;6268531;22;20035;-73
2023/08/31 09:30:24;;;;;;;4.93;2.50;;;19.20;95.20;;;;;;6270484;22;20456;-75
2023/08/31 09:33:16;;;;;;;2.00;1.50;;;19.30;95.10;;;;;;6271035;22;20008;-72
2023/08/31 09:36:03;;;;;;;2.80;1.58;;;19.30;94.80;;;;;;6270241;22;20027;-73
2023/08/31 09:38:49;;;;;;;3.03;1.45;;;19.30;94.80;;;;;;6248008;22;20023;-73
2023/08/31 09:41:51;;;;;;;3.47;1.55;;;19.30;94.80;;;;;;6271286;22;20008;-74
2023/08/31 09:44:43;;;;;;;1.58;1.35;;;19.40;94.80;;;;;;6268558;22;20520;-73
2023/08/31 09:47:29;;;;;;;2.22;1.50;;;19.40;94.80;;;;;;6248176;22;20007;-73
2023/08/31 09:50:15;;;;;;;3.75;1.70;;;19.50;94.70;;;;;;6273250;22;20016;-73
2023/08/31 09:53:04;;;;;;;4.53;1.75;;;19.50;94.70;;;;;;6275561;22;20007;-74
2023/08/31 09:55:51;;;;;;;6.13;2.00;;;19.60;94.60;;;;;;6249300;22;20015;-74
2023/08/31 09:58:37;;;;;;;5.25;2.58;;;19.60;94.40;;;;;;6271236;22;20077;-75
2023/08/31 10:01:23;;;;;;;2.60;1.45;;;19.60;94.30;;;;;;6248981;22;20091;-74
2023/08/31 10:04:10;;;;;;;3.35;1.58;;;19.60;94.20;;;;;;6247518;22;20007;-75
2023/08/31 10:06:57;;;;;;;2.53;1.40;;;19.60;94.10;;;;;;6247993;22;20429;-75
2023/08/31 10:09:44;;;;;;;2.63;1.20;;;19.70;93.70;;;;;;6248297;22;20015;-74
2023/08/31 10:12:31;;;;;;;3.83;1.67;;;19.70;93.10;;;;;;6269273;22;20108;-74
2023/08/31 10:15:18;;;;;;;5.00;1.88;;;19.70;92.90;;;;;;6271360;22;20004;-74
2023/08/31 10:18:06;;;;;;;3.50;1.38;;;19.80;92.90;;;;;;6270274;22;20019;-74
2023/08/31 10:20:52;;;;;;;4.00;1.30;;;19.90;92.60;;;;;;6268734;22;20012;-74
2023/08/31 10:23:47;;;;;;;2.05;1.15;;;19.90;92.40;;;;;;6248600;22;20004;-74
2023/08/31 10:26:35;;;;;;;2.72;1.42;;;20.00;92.30;;;;;;6270693;22;20039;-73
2023/08/31 10:29:29;;;;;;;2.17;1.25;;;20.10;92.20;;;;;;6245833;22;20015;-74
2023/08/31 10:32:18;;;;;;;1.77;1.33;;;20.20;91.90;;;;;;6247877;22;20012;-73
2023/08/31 10:35:05;;;;;;;3.08;1.30;;;20.30;91.90;;;;;;6269991;22;20021;-73
2023/08/31 10:37:51;;;;;;;3.20;1.00;;;20.40;91.90;;;;;;6271391;22;20024;-73
2023/08/31 10:40:37;;;;;;;2.20;1.50;;;20.50;91.70;;;;;;6272295;22;20014;-71
2023/08/31 10:43:24;;;;;;;2.25;1.25;;;20.50;91.70;;;;;;6273323;22;20020;-71
2023/08/31 10:46:16;;;;;;;2.95;1.05;;;20.30;92.20;;;;;;6272684;22;20012;-69
2023/08/31 10:49:14;;;;;;;4.15;1.40;;;20.10;92.70;;;;;;6271743;22;20011;-72
2023/08/31 10:52:18;;;;;;;1.90;1.38;;;19.90;93.30;;;;;;6272001;22;20008;-70
2023/08/31 10:55:05;;;;;;;2.63;1.40;;;19.70;93.60;;;;;;6271708;22;20475;-70
2023/08/31 10:57:51;;;;;;;3.42;1.63;;;19.60;93.90;;;;;;6273128;22;20058;-70
2023/08/31 11:00:53;;;;;;;2.85;1.35;;;19.50;94.20;;;;;;6271431;22;20004;-71
2023/08/31 11:03:58;;;;;;;2.22;1.20;;;19.30;94.50;;;;;;6271138;22;20344;-72
2023/08/31 11:06:44;;;;;;;3.78;1.75;;;19.30;94.80;;;;;;6272130;22;20003;-72
2023/08/31 11:09:30;;;;;;;2.00;1.35;;;19.20;95.00;;;;;;6272210;22;20010;-71
2023/08/31 11:12:16;;;;;;;2.63;1.40;;;19.20;95.30;;;;;;6248765;22;20439;-71
2023/08/31 11:15:03;;;;;;;3.28;1.67;;;19.10;95.50;;;;;;6251694;22;20008;-72
2023/08/31 11:17:51;;;;;;;3.72;1.92;;;19.10;95.80;;;;;;6271565;22;20015;-73
2023/08/31 11:20:37;;;;;;;3.50;1.70;;;19.20;96.10;;;;;;6271192;22;20012;-72
2023/08/31 11:23:25;;;;;;;5.50;2.40;;;19.20;96.40;;;;;;6270438;22;20575;-73
2023/08/31 11:26:10;;;;;;;3.58;1.55;;;19.30;96.60;;;;;;6271800;22;20154;-72
2023/08/31 11:28:56;;;;;;;3.08;1.42;;;19.40;96.70;;;;;;6271940;22;20146;-73
2023/08/31 11:31:43;;;;;;;3.67;2.00;;;19.40;96.90;;;;;;6272376;22;20003;-73
2023/08/31 11:34:29;;;;;;;2.47;1.60;;;19.50;96.70;;;;;;6270724;22;20349;-74
2023/08/31 11:37:15;;;;;;;3.78;1.33;;;19.60;96.60;;;;;;6271865;22;20106;-74
2023/08/31 11:40:04;;;;;;;5.30;1.67;;;19.70;96.60;;;;;;6271432;22;20008;-74
2023/08/31 11:42:51;;;;;;;2.65;1.52;;;19.80;96.50;;;;;;6271628;22;20003;-75
2023/08/31 11:45:38;;;;;;;2.92;1.45;;;19.90;96.20;;;;;;6271041;22;20040;-76
2023/08/31 11:48:25;;;;;;;2.92;1.42;;;20.00;95.80;;;;;;6249435;22;20011;-77
2023/08/31 11:51:11;;;;;;;3.10;1.33;;;20.10;95.50;;;;;;6270912;22;20069;-72
2023/08/31 11:53:59;;;;;;;2.78;1.55;;;20.10;95.80;;;;;;6249461;22;20008;-72
2023/08/31 11:56:48;;;;;;;2.75;1.67;;;20.20;95.30;;;;;;6271430;22;20076;-71
2023/08/31 11:59:36;;;;;;;3.88;1.65;;;20.20;95.10;;;;;;6248201;22;20331;-71
2023/08/31 12:02:22;;;;;;;6.32;1.83;;;20.30;94.70;;;;;;6270816;22;20030;-72
2023/08/31 12:05:09;;;;;;;6.18;1.58;;;20.30;94.40;;;;;;6249834;22;20376;-71
2023/08/31 12:07:56;;;;;;;9.85;2.28;;;20.20;94.00;;;;;;6271926;22;20004;-69
2023/08/31 12:10:42;;;;;;;3.38;1.90;;;20.00;94.60;;;;;;6270173;22;20460;-69
2023/08/31 12:13:28;;;;;;;6.30;2.10;;;19.70;94.80;;;;;;6271688;22;20004;-68
2023/08/31 12:16:15;;;;;;;6.78;2.13;;;19.50;95.30;;;;;;6272625;22;20022;-68
2023/08/31 12:19:04;;;;;;;10.00;3.13;;;19.40;95.70;;;;;;6271819;22;20023;-70
2023/08/31 12:21:50;;;;;;;3.97;2.08;;;19.40;96.40;;;;;;6271017;22;20014;-68
2023/08/31 12:24:43;;;;;;;4.43;2.20;;;19.50;97.10;;;;;;6272240;22;20015;-69
2023/08/31 12:27:30;;;;;;;3.85;2.42;;;19.50;97.70;;;;;;6269492;22;20018;-68
2023/08/31 12:30:16;;;;;;;3.63;2.15;;;19.70;97.90;;;;;;6271848;22;20043;-66
2023/08/31 12:33:02;;;;;;;4.03;2.20;;;19.70;98.00;;;;;;6272122;22;20204;-69
2023/08/31 12:35:48;;;;;;;3.63;1.85;;;19.80;98.00;;;;;;6270232;22;20453;-68
2023/08/31 12:38:34;;;;;;;5.97;2.65;;;19.90;97.50;;;;;;6269169;22;20034;-69
2023/08/31 12:41:20;;;;;;;3.35;2.15;;;19.90;97.60;;;;;;6268576;22;20107;-68
2023/08/31 12:44:07;;;;;;;3.28;1.80;;;19.90;97.50;;;;;;6268252;22;20094;-68
2023/08/31 12:46:54;;;;;;;3.17;2.00;;;19.80;97.50;;;;;;6270517;22;20626;-67
2023/08/31 12:49:40;;;;;;;6.70;2.38;;;19.70;97.60;;;;;;6273145;22;20012;-68
2023/08/31 12:52:26;;;;;;;3.47;1.73;;;19.70;97.80;;;;;;6271216;22;20004;-69
2023/08/31 12:55:15;;;;;;;6.68;3.63;;;19.70;98.00;;;;;;6271109;22;20016;-68
2023/08/31 12:58:01;;;;;;;5.53;2.25;;;19.80;98.10;;;;;;6271496;22;20019;-69
2023/08/31 13:00:49;;;;;;;5.15;2.85;;;19.90;98.00;;;;;;6271279;22;20094;-68
2023/08/31 13:03:35;;;;;;;5.53;2.25;;;20.10;98.00;;;;;;6272176;22;20012;-69
2023/08/31 13:06:20;;;;;;;3.00;1.90;;;20.30;97.70;;;;;;6269144;22;20103;-68
2023/08/31 13:09:08;;;;;;;4.40;2.10;;;20.40;97.70;;;;;;6266443;22;20460;-69
2023/08/31 13:11:54;;;;;;;2.67;1.90;;;20.40;97.20;;;;;;6267963;22;20011;-69
2023/08/31 13:14:40;;;;;;;3.08;1.80;;;20.40;96.90;;;;;;6267454;22;20448;-70
2023/08/31 13:17:27;;;;;;;3.30;1.90;;;20.40;96.80;;;;;;6268005;22;20026;-70
2023/08/31 13:20:13;;;;;;;3.22;1.65;;;20.40;96.60;;;;;;6269365;22;20069;-71
2023/08/31 13:22:59;;;;;;;3.67;1.85;;;20.30;96.50;;;;;;6271005;22;20058;-72
2023/08/31 13:25:45;;;;;;;2.20;1.40;;;20.30;96.40;;;;;;6269560;22;20011;-72
2023/08/31 13:28:32;;;;;;;2.13;1.58;;;20.30;96.40;;;;;;6272613;22;20362;-73
2023/08/31 13:31:18;;;;;;;3.50;1.85;;;20.30;96.30;;;;;;6247618;22;20046;-72
2023/08/31 13:34:05;;;;;;;4.63;1.52;;;20.30;96.70;;;;;;6270514;22;20355;-71
2023/08/31 13:36:51;;;;;;;3.10;1.92;;;20.20;96.50;;;;;;6249495;22;20044;-73
2023/08/31 13:39:40;;;;;;;4.07;1.80;;;20.10;96.30;;;;;;6267559;22;20449;-73
2023/08/31 13:42:26;;;;;;;2.10;1.58;;;20.00;95.90;;;;;;6247999;22;20008;-74
2023/08/31 13:45:12;;;;;;;3.50;1.65;;;19.80;95.60;;;;;;6270616;22;20012;-73
2023/08/31 13:48:04;;;;;;;3.33;1.95;;;19.70;95.60;;;;;;6248450;22;20035;-72
2023/08/31 13:50:49;;;;;;;2.45;1.60;;;19.60;95.60;;;;;;6247200;22;20012;-72
2023/08/31 13:53:35;;;;;;;2.80;1.70;;;19.60;95.40;;;;;;6268281;22;20018;-72
2023/08/31 13:56:21;;;;;;;2.65;1.73;;;19.50;95.40;;;;;;6271106;22;20011;-71
2023/08/31 13:59:07;;;;;;;3.20;1.40;;;19.40;95.40;;;;;;6248986;22;20547;-72
2023/08/31 14:01:54;;;;;;;2.45;1.42;;;19.30;95.20;;;;;;6247171;22;20098;-72
2023/08/31 14:04:40;;;;;;;2.97;1.75;;;19.20;95.10;;;;;;6271241;22;20012;-73
2023/08/31 14:07:26;;;;;;;2.75;1.67;;;19.20;95.10;;;;;;6269469;22;20008;-73
2023/08/31 14:10:11;;;;;;;3.92;1.70;;;19.10;95.00;;;;;;6246418;22;20011;-74
2023/08/31 14:12:57;;;;;;;2.95;1.58;;;19.10;95.00;;;;;;6250414;22;20015;-73
2023/08/31 14:15:46;;;;;;;6.90;1.50;;;19.00;95.10;;;;;;6272126;22;20022;-73
2023/08/31 14:18:32;;;;;;;3.70;1.55;;;19.00;95.30;;;;;;6272135;22;20062;-73
2023/08/31 14:21:19;;;;;;;1.55;1.45;;;18.90;95.60;;;;;;6272393;22;20007;-72
2023/08/31 14:24:06;;;;;;;3.20;1.80;;;18.90;95.70;;;;;;6272826;22;20019;-73
2023/08/31 14:26:52;;;;;;;2.63;1.67;;;19.00;95.50;;;;;;6250883;22;20014;-72
2023/08/31 14:29:38;;;;;;;3.08;1.85;;;19.00;95.40;;;;;;6249017;22;20016;-72